Etusivu
METAR-TAF:

METAR-TAF

Lentoasemat :

Warsaw Municipal Airport

Warsaw, Indiana, Yhdysvallat

Leveyspiiri: 41-16-28N, Pituuspiiri: 085-50-24W, korkeus merenpinnasta: 259 m

Tämänhetkinen sää

Tämä raportti tehtiin 6 minuuttia sitten, kello 05.15 UTC
Tuuli 15 kn lännestä puuskistuen 23 kn:hen
Lämpötila -10°C
Kosteus 72%
Ilmanpaine 1015 hPa
Näkyvyys: 16.1 km
Hajonneita pilviä 2100 ft:n korkeudessa
Pilvistä 2600 ft:n korkeudessa
heikkoa lumisadetta

METAR: KASW 190515Z AUTO 28015G23KT 10SM -SN BKN021 OVC026 M10/M14 A2996 RMK AO2

Aika: 00:21 (05:21 UTC)


TAF: puuttuu

Säähavainnot ja -ennusteet yli 4000 lentoasemalta (METAR- ja TAF-raportit).

Käytössä olevat sääasemat on merkitty karttaan keltaisilla ja punaisilla pisteillä.

Aseta hiiri pisteen päälle nähdäksesi sääaseman nimen.

Klikkaa sitten nähdäksesi säähavainnot ja -ennusteet.

Kartan vaihtaminen: klikkaa mustalla rastilla varustettuja vihreitä pisteitä, niin voit zoomata sisään; viivalla varustettua vihreää pistettä, niin voit zoomata ulos tai vihreitä nuolia, niin pääset viereisille kartoille.


METAR-TAF: